createdAt,value
2022-10-10T00:01:33.939Z,12.40
2022-10-10T00:04:02.906Z,12.40
2022-10-10T00:06:33.559Z,12.40
2022-10-10T00:09:02.266Z,12.30
2022-10-10T00:11:30.780Z,12.30
2022-10-10T00:13:59.024Z,12.30
2022-10-10T00:16:27.001Z,12.30
2022-10-10T00:18:54.957Z,12.30
2022-10-10T00:21:22.962Z,12.30
2022-10-10T00:23:52.879Z,12.20
2022-10-10T00:26:20.859Z,12.20
2022-10-10T00:28:49.246Z,12.20
2022-10-10T00:31:17.548Z,12.20
2022-10-10T00:33:46.058Z,12.20
2022-10-10T00:36:14.117Z,12.10
2022-10-10T00:38:42.239Z,12.10
2022-10-10T00:41:11.658Z,12.00
2022-10-10T00:43:39.649Z,12.00
2022-10-10T00:46:07.696Z,12.00
2022-10-10T00:48:39.823Z,11.90
2022-10-10T00:51:11.345Z,11.90
2022-10-10T00:53:42.313Z,11.90
2022-10-10T00:56:13.482Z,11.80
2022-10-10T00:58:44.353Z,11.80
2022-10-10T01:01:12.522Z,11.80
2022-10-10T01:03:40.500Z,11.80
2022-10-10T01:06:08.909Z,11.70
2022-10-10T01:08:37.692Z,11.70
2022-10-10T01:11:19.581Z,11.70
2022-10-10T01:13:56.142Z,11.70
2022-10-10T01:16:30.966Z,11.60
2022-10-10T01:19:09.847Z,11.60
2022-10-10T01:21:51.499Z,11.60
2022-10-10T01:24:32.123Z,11.60
2022-10-10T01:27:18.009Z,11.50
2022-10-10T01:29:51.621Z,11.50
2022-10-10T01:32:27.068Z,11.50
2022-10-10T01:35:08.610Z,11.40
2022-10-10T01:37:47.395Z,11.40
2022-10-10T01:40:24.920Z,11.40
2022-10-10T01:42:55.879Z,11.40
2022-10-10T01:45:25.713Z,11.30
2022-10-10T01:47:56.723Z,11.30
2022-10-10T01:50:27.313Z,11.30
2022-10-10T01:53:07.065Z,11.20
2022-10-10T01:55:57.251Z,11.20
2022-10-10T01:58:54.357Z,11.20
2022-10-10T02:01:27.511Z,11.20
2022-10-10T02:04:02.177Z,11.20
2022-10-10T02:06:36.877Z,11.20
2022-10-10T02:09:08.142Z,11.10
2022-10-10T02:11:38.784Z,11.10
2022-10-10T02:14:13.074Z,11.10
2022-10-10T02:16:46.435Z,11.10
2022-10-10T02:19:18.518Z,11.10
2022-10-10T02:21:47.832Z,11.00
2022-10-10T02:24:16.723Z,11.00
2022-10-10T02:26:48.823Z,10.90
2022-10-10T02:29:20.700Z,10.90
2022-10-10T02:31:57.945Z,10.90
2022-10-10T02:34:30.471Z,10.90
2022-10-10T02:37:03.635Z,10.90
2022-10-10T02:39:35.828Z,10.90
2022-10-10T02:42:05.688Z,10.90
2022-10-10T02:44:34.378Z,10.90
2022-10-10T02:47:04.125Z,10.90
2022-10-10T02:49:34.098Z,10.80
2022-10-10T02:52:02.961Z,10.80
2022-10-10T02:54:30.985Z,10.80
2022-10-10T02:56:58.932Z,10.80
2022-10-10T02:59:26.941Z,10.80
2022-10-10T03:01:54.963Z,10.90
2022-10-10T03:04:24.493Z,10.90
2022-10-10T03:06:53.627Z,10.90
2022-10-10T03:09:21.519Z,10.90
2022-10-10T03:11:49.517Z,10.80
2022-10-10T03:14:17.483Z,10.80
2022-10-10T03:16:45.495Z,10.80
2022-10-10T03:19:13.442Z,10.90
2022-10-10T03:21:42.731Z,10.90
2022-10-10T03:24:10.712Z,10.90
2022-10-10T03:26:38.609Z,10.90
2022-10-10T03:29:06.723Z,10.90
2022-10-10T03:31:34.679Z,10.90
2022-10-10T03:34:02.620Z,10.90
2022-10-10T03:36:31.342Z,10.90
2022-10-10T03:39:00.608Z,10.90
2022-10-10T03:41:28.529Z,10.80
2022-10-10T03:43:56.732Z,10.80
2022-10-10T03:46:24.753Z,10.80
2022-10-10T03:48:53.117Z,10.80
2022-10-10T03:51:21.303Z,10.80
2022-10-10T03:53:49.220Z,10.80
2022-10-10T03:56:18.493Z,10.70
2022-10-10T03:58:46.414Z,10.70
2022-10-10T04:01:14.367Z,10.70
2022-10-10T04:03:42.348Z,10.70
2022-10-10T04:06:10.357Z,10.60
2022-10-10T04:08:38.489Z,10.60
2022-10-10T04:11:06.614Z,10.60
2022-10-10T04:13:35.882Z,10.60
2022-10-10T04:16:03.863Z,10.50
2022-10-10T04:18:32.136Z,10.50
2022-10-10T04:21:03.101Z,10.50
2022-10-10T04:23:31.209Z,10.50
2022-10-10T04:25:59.089Z,10.50
2022-10-10T04:28:27.085Z,10.50
2022-10-10T04:30:56.978Z,10.50
2022-10-10T04:33:25.069Z,10.50
2022-10-10T04:35:53.054Z,10.50
2022-10-10T04:38:22.641Z,10.50
2022-10-10T04:40:51.866Z,10.50
2022-10-10T04:43:20.213Z,10.50
2022-10-10T04:45:48.435Z,10.50
2022-10-10T04:48:17.746Z,10.50
2022-10-10T04:50:45.721Z,10.50
2022-10-10T04:53:13.761Z,10.50
2022-10-10T04:55:41.668Z,10.50
2022-10-10T04:58:09.662Z,10.50
2022-10-10T05:00:38.842Z,10.40
2022-10-10T05:03:07.255Z,10.40
2022-10-10T05:05:36.579Z,10.40
2022-10-10T05:08:04.523Z,10.40
2022-10-10T05:10:35.965Z,10.40
2022-10-10T05:13:04.135Z,10.40
2022-10-10T05:15:32.064Z,10.40
2022-10-10T05:17:59.982Z,10.40
2022-10-10T05:20:28.077Z,10.40
2022-10-10T05:22:57.492Z,10.40
2022-10-10T05:25:25.551Z,10.40
2022-10-10T05:27:53.516Z,10.40
2022-10-10T05:30:21.486Z,10.40
2022-10-10T05:32:49.625Z,10.40
2022-10-10T05:35:18.603Z,10.40
2022-10-10T05:37:46.494Z,10.30
2022-10-10T05:40:15.803Z,10.30
2022-10-10T05:42:43.757Z,10.30
2022-10-10T05:45:11.935Z,10.20
2022-10-10T05:47:39.894Z,10.20
2022-10-10T05:50:11.691Z,10.10
2022-10-10T05:52:39.607Z,10.10
2022-10-10T05:55:07.820Z,10.10
2022-10-10T05:57:37.075Z,10.10
2022-10-10T06:00:05.682Z,10.10
2022-10-10T06:02:33.618Z,10.10
2022-10-10T06:05:01.552Z,10.10
2022-10-10T06:07:51.841Z,10.10
2022-10-10T06:10:17.833Z,10.10
2022-10-10T06:12:47.254Z,10.10
2022-10-10T06:15:15.193Z,10.10
2022-10-10T06:17:43.089Z,10.10
2022-10-10T06:20:11.229Z,10.00
2022-10-10T06:22:39.189Z,10.00
2022-10-10T06:25:15.171Z,10.00
2022-10-10T06:27:53.487Z,10.00
2022-10-10T06:30:21.395Z,10.00
2022-10-10T06:32:51.684Z,10.00
2022-10-10T06:35:22.583Z,10.00
2022-10-10T06:37:50.541Z,10.00
2022-10-10T06:40:18.580Z,10.00
2022-10-10T06:42:46.491Z,10.00
2022-10-10T06:45:15.840Z,10.10
2022-10-10T06:47:43.727Z,10.20
2022-10-10T06:50:11.595Z,10.20
2022-10-10T06:52:41.300Z,10.20
2022-10-10T06:55:09.835Z,10.30
2022-10-10T06:57:37.732Z,10.40
2022-10-10T07:00:06.843Z,10.40
2022-10-10T07:02:40.622Z,10.40
2022-10-10T07:05:10.525Z,10.50
2022-10-10T07:07:38.504Z,10.50
2022-10-10T07:10:07.234Z,10.50
2022-10-10T07:12:42.108Z,10.60
2022-10-10T07:15:12.297Z,10.60
2022-10-10T07:17:41.577Z,10.70
2022-10-10T07:20:10.200Z,10.70
2022-10-10T07:22:38.124Z,10.80
2022-10-10T07:25:06.783Z,10.80
2022-10-10T07:27:34.665Z,10.80
2022-10-10T07:30:02.860Z,10.80
2022-10-10T07:32:30.741Z,10.90
2022-10-10T07:34:59.956Z,10.90
2022-10-10T07:37:28.022Z,11.00
2022-10-10T07:39:56.257Z,11.00
2022-10-10T07:42:24.262Z,11.10
2022-10-10T07:44:52.313Z,11.10
2022-10-10T07:47:20.420Z,11.20
2022-10-10T07:49:48.346Z,11.30
2022-10-10T07:52:17.834Z,11.30
2022-10-10T07:54:45.787Z,11.40
2022-10-10T07:57:13.734Z,11.50
2022-10-10T07:59:45.618Z,11.50
2022-10-10T08:02:13.685Z,11.60
2022-10-10T08:04:41.708Z,11.60
2022-10-10T08:07:09.842Z,11.60
2022-10-10T08:09:39.120Z,11.70
2022-10-10T08:12:07.087Z,11.70
2022-10-10T08:14:34.944Z,11.80
2022-10-10T08:17:02.955Z,11.80
2022-10-10T08:19:30.843Z,11.90
2022-10-10T08:21:58.757Z,11.90
2022-10-10T08:24:26.650Z,12.00
2022-10-10T08:26:56.294Z,12.00
2022-10-10T08:29:24.205Z,12.10
2022-10-10T08:31:52.105Z,12.10
2022-10-10T08:34:20.118Z,12.20
2022-10-10T08:36:48.057Z,12.20
2022-10-10T08:39:17.465Z,12.30
2022-10-10T08:41:50.792Z,12.30
2022-10-10T08:44:27.419Z,12.40
2022-10-10T08:46:59.250Z,12.50
2022-10-10T08:49:34.163Z,12.50
2022-10-10T08:52:08.050Z,12.60
2022-10-10T08:54:38.772Z,12.60
2022-10-10T08:57:14.747Z,12.60
2022-10-10T08:59:44.665Z,12.70
2022-10-10T09:02:50.149Z,12.70
2022-10-10T09:05:27.441Z,12.80
2022-10-10T09:08:11.605Z,12.80
2022-10-10T09:10:46.463Z,12.90
2022-10-10T09:13:25.803Z,12.90
2022-10-10T09:15:58.759Z,13.00
2022-10-10T09:18:39.406Z,13.10
2022-10-10T09:21:16.215Z,13.10
2022-10-10T09:23:50.800Z,13.20
2022-10-10T09:26:23.131Z,13.20
2022-10-10T09:28:56.354Z,13.20
2022-10-10T09:31:32.285Z,13.20
2022-10-10T09:34:05.197Z,13.30
2022-10-10T09:36:37.106Z,13.30
2022-10-10T09:39:14.055Z,13.30
2022-10-10T09:41:47.229Z,13.40
2022-10-10T09:44:18.189Z,13.50
2022-10-10T09:46:47.796Z,13.50
2022-10-10T09:49:17.788Z,13.60
2022-10-10T09:51:47.016Z,13.70
2022-10-10T09:54:17.204Z,13.70
2022-10-10T09:56:49.840Z,13.80
2022-10-10T09:59:40.489Z,13.90
2022-10-10T10:02:16.456Z,13.90
2022-10-10T10:04:44.821Z,14.00
2022-10-10T10:07:28.199Z,14.10
2022-10-10T10:09:58.154Z,14.10
2022-10-10T10:12:29.404Z,14.20
2022-10-10T10:15:03.281Z,14.30
2022-10-10T10:17:32.608Z,14.40
2022-10-10T10:20:00.667Z,14.50
2022-10-10T10:22:39.972Z,14.60
2022-10-10T10:25:31.738Z,14.60
2022-10-10T10:28:17.929Z,14.70
2022-10-10T10:30:46.486Z,14.80
2022-10-10T10:33:27.004Z,14.90
2022-10-10T10:36:06.523Z,15.00
2022-10-10T10:38:43.325Z,15.00
2022-10-10T10:41:19.755Z,15.10
2022-10-10T10:44:12.760Z,15.20
2022-10-10T10:46:52.732Z,15.30
2022-10-10T10:49:29.524Z,15.30
2022-10-10T10:52:14.573Z,15.40
2022-10-10T10:55:04.898Z,15.50
2022-10-10T10:58:04.543Z,15.50
2022-10-10T11:01:28.002Z,15.60
2022-10-10T11:05:18.787Z,15.70
2022-10-10T11:07:16.801Z,15.70
2022-10-10T11:09:50.059Z,15.80
2022-10-10T11:12:30.033Z,15.90
2022-10-10T11:15:02.134Z,15.90
2022-10-10T11:17:37.649Z,16.00
2022-10-10T11:20:17.787Z,16.10
2022-10-10T11:22:52.919Z,16.10
2022-10-10T11:25:24.728Z,16.20
2022-10-10T11:27:56.450Z,16.30
2022-10-10T11:30:25.522Z,16.40
2022-10-10T11:32:57.427Z,16.40
2022-10-10T11:35:34.069Z,16.50
2022-10-10T11:38:11.551Z,16.50
2022-10-10T11:40:59.008Z,16.60
2022-10-10T11:43:35.013Z,16.60
2022-10-10T11:46:12.639Z,16.70
2022-10-10T11:48:46.935Z,16.70
2022-10-10T11:51:23.738Z,16.80
2022-10-10T11:53:57.235Z,16.90
2022-10-10T11:56:33.080Z,17.00
2022-10-10T11:59:08.099Z,17.10
2022-10-10T12:01:39.337Z,17.10
2022-10-10T12:04:07.276Z,17.10
2022-10-10T12:06:39.499Z,17.20
2022-10-10T12:09:13.356Z,17.20
2022-10-10T12:11:47.135Z,17.20
2022-10-10T12:14:18.625Z,17.20
2022-10-10T12:16:47.288Z,17.20
2022-10-10T12:19:20.401Z,17.30
2022-10-10T12:22:00.371Z,17.30
2022-10-10T12:24:31.784Z,17.40
2022-10-10T12:27:42.113Z,17.40
2022-10-10T12:30:27.841Z,17.50
2022-10-10T12:32:56.048Z,17.60
2022-10-10T12:35:38.994Z,17.60
2022-10-10T12:38:31.107Z,17.70
2022-10-10T12:41:10.156Z,17.80
2022-10-10T12:43:41.802Z,17.90
2022-10-10T12:46:20.394Z,18.00
2022-10-10T12:49:02.990Z,18.00
2022-10-10T12:51:34.140Z,18.10
2022-10-10T12:54:05.778Z,18.10
2022-10-10T12:56:43.993Z,18.20
2022-10-10T12:59:21.262Z,18.20
2022-10-10T13:01:54.082Z,18.20
2022-10-10T13:04:24.043Z,18.20
2022-10-10T13:06:56.329Z,18.20
2022-10-10T13:09:31.048Z,18.20
2022-10-10T13:12:05.058Z,18.20
2022-10-10T13:14:41.478Z,18.20
2022-10-10T13:17:24.443Z,18.30
2022-10-10T13:19:52.828Z,18.20
2022-10-10T13:22:21.837Z,18.30
2022-10-10T13:24:51.504Z,18.30
2022-10-10T13:27:24.112Z,18.40
2022-10-10T13:29:53.220Z,18.50
2022-10-10T13:32:24.784Z,18.50
2022-10-10T13:34:56.889Z,18.50
2022-10-10T13:37:25.847Z,18.60
2022-10-10T13:39:54.508Z,18.60
2022-10-10T13:42:35.879Z,18.60
2022-10-10T13:45:30.390Z,18.60
2022-10-10T13:48:12.049Z,18.60
2022-10-10T13:50:56.882Z,18.70
2022-10-10T13:53:32.719Z,18.70
2022-10-10T13:56:04.751Z,18.80
2022-10-10T13:58:39.914Z,18.80
2022-10-10T14:01:19.004Z,18.80
2022-10-10T14:03:48.551Z,18.80
2022-10-10T14:06:19.271Z,18.90
2022-10-10T14:08:48.940Z,18.90
2022-10-10T14:11:20.027Z,18.90
2022-10-10T14:13:52.094Z,19.00
2022-10-10T14:16:25.103Z,19.00
2022-10-10T14:18:53.397Z,19.00
2022-10-10T14:21:21.347Z,19.10
2022-10-10T14:23:49.289Z,19.10
2022-10-10T14:26:20.278Z,19.10
2022-10-10T14:28:49.879Z,19.10
2022-10-10T14:31:18.234Z,19.10
2022-10-10T14:33:46.268Z,19.10
2022-10-10T14:36:14.794Z,19.10
2022-10-10T14:38:42.716Z,19.00
2022-10-10T14:41:13.074Z,19.00
2022-10-10T14:43:45.528Z,18.90
2022-10-10T14:46:19.060Z,18.90
2022-10-10T14:48:47.603Z,18.80
2022-10-10T14:51:33.168Z,18.80
2022-10-10T14:54:12.341Z,18.70
2022-10-10T14:57:08.969Z,18.70
2022-10-10T14:59:47.483Z,18.60
2022-10-10T15:02:20.346Z,18.50
2022-10-10T15:04:48.531Z,18.50
2022-10-10T15:07:17.374Z,18.40
2022-10-10T15:10:17.478Z,18.40
2022-10-10T15:12:37.103Z,18.40
2022-10-10T15:15:06.102Z,18.40
2022-10-10T15:17:35.710Z,18.30
2022-10-10T15:20:05.494Z,18.30
2022-10-10T15:22:33.733Z,18.30
2022-10-10T15:25:01.844Z,18.30
2022-10-10T15:27:29.869Z,18.30
2022-10-10T15:29:57.955Z,18.20
2022-10-10T15:32:26.389Z,18.20
2022-10-10T15:34:55.730Z,18.20
2022-10-10T15:37:25.976Z,18.20
2022-10-10T15:39:54.039Z,18.20
2022-10-10T15:42:23.377Z,18.10
2022-10-10T15:44:52.206Z,18.10
2022-10-10T15:47:21.408Z,18.10
2022-10-10T15:49:49.798Z,18.10
2022-10-10T15:52:22.933Z,18.00
2022-10-10T15:54:50.987Z,18.00
2022-10-10T15:57:19.671Z,18.00
2022-10-10T15:59:48.147Z,18.00
2022-10-10T16:02:16.229Z,17.90
2022-10-10T16:04:44.320Z,17.90
2022-10-10T16:07:26.829Z,17.90
2022-10-10T16:10:01.061Z,17.80
2022-10-10T16:12:29.075Z,17.80
2022-10-10T16:14:57.037Z,17.70
2022-10-10T16:17:25.271Z,17.70
2022-10-10T16:19:53.200Z,17.60
2022-10-10T16:22:21.300Z,17.60
2022-10-10T16:25:10.122Z,17.50
2022-10-10T16:27:39.341Z,17.40
2022-10-10T16:30:08.808Z,17.40
2022-10-10T16:32:41.705Z,17.30
2022-10-10T16:35:11.167Z,17.20
2022-10-10T16:37:39.556Z,17.20
2022-10-10T16:40:08.456Z,17.10
2022-10-10T16:42:37.802Z,17.10
2022-10-10T16:45:06.590Z,17.00
2022-10-10T16:47:34.878Z,16.90
2022-10-10T16:50:03.215Z,16.90
2022-10-10T16:52:33.008Z,16.90
2022-10-10T16:55:00.932Z,16.80
2022-10-10T16:57:29.117Z,16.80
2022-10-10T16:59:58.551Z,16.70
2022-10-10T17:02:26.489Z,16.70
2022-10-10T17:04:55.195Z,16.60
2022-10-10T17:07:23.090Z,16.60
2022-10-10T17:09:51.260Z,16.60
2022-10-10T17:12:19.471Z,16.50
2022-10-10T17:14:47.890Z,16.50
2022-10-10T17:17:19.289Z,16.50
2022-10-10T17:19:49.131Z,16.40
2022-10-10T17:22:17.846Z,16.40
2022-10-10T17:24:46.054Z,16.40
2022-10-10T17:27:14.259Z,16.30
2022-10-10T17:29:42.161Z,16.30
2022-10-10T17:32:10.236Z,16.30
2022-10-10T17:34:39.658Z,16.20
2022-10-10T17:37:07.650Z,16.20
2022-10-10T17:39:35.679Z,16.20
2022-10-10T17:42:05.037Z,16.10
2022-10-10T17:44:39.130Z,16.10
2022-10-10T17:47:10.195Z,16.10
2022-10-10T17:49:46.176Z,16.00
2022-10-10T17:52:18.864Z,16.00
2022-10-10T17:54:49.154Z,16.00
2022-10-10T17:57:17.311Z,15.90
2022-10-10T17:59:45.316Z,15.90
2022-10-10T18:02:16.156Z,15.90
2022-10-10T18:04:45.659Z,15.80
2022-10-10T18:07:13.993Z,15.80
2022-10-10T18:09:41.991Z,15.80
2022-10-10T18:12:09.920Z,15.80
2022-10-10T18:14:37.898Z,15.80
2022-10-10T18:17:05.833Z,15.80
2022-10-10T18:19:33.955Z,15.80
2022-10-10T18:22:03.261Z,15.80
2022-10-10T18:24:31.403Z,15.80
2022-10-10T18:26:59.493Z,15.70
2022-10-10T18:29:27.411Z,15.70
2022-10-10T18:31:56.402Z,15.70
2022-10-10T18:34:24.441Z,15.60
2022-10-10T18:36:52.495Z,15.60
2022-10-10T18:39:21.765Z,15.60
2022-10-10T18:41:49.714Z,15.60
2022-10-10T18:44:19.239Z,15.60
2022-10-10T18:46:47.355Z,15.60
2022-10-10T18:49:15.570Z,15.60
2022-10-10T18:51:44.454Z,15.60
2022-10-10T18:54:14.759Z,15.60
2022-10-10T18:56:44.992Z,15.60
2022-10-10T18:59:15.909Z,15.60
2022-10-10T19:01:45.675Z,15.60
2022-10-10T19:04:16.117Z,15.60
2022-10-10T19:06:45.296Z,15.60
2022-10-10T19:09:15.200Z,15.60
2022-10-10T19:11:48.537Z,15.50
2022-10-10T19:14:19.192Z,15.50
2022-10-10T19:16:48.313Z,15.50
2022-10-10T19:19:18.814Z,15.50
2022-10-10T19:21:48.408Z,15.50
2022-10-10T19:24:20.677Z,15.40
2022-10-10T19:26:53.337Z,15.40
2022-10-10T19:29:22.123Z,15.50
2022-10-10T19:31:50.449Z,15.50
2022-10-10T19:34:18.554Z,15.50
2022-10-10T19:36:46.770Z,15.50
2022-10-10T19:39:14.971Z,15.50
2022-10-10T19:41:42.979Z,15.50
2022-10-10T19:44:12.276Z,15.50
2022-10-10T19:46:40.218Z,15.50
2022-10-10T19:49:08.166Z,15.60
2022-10-10T19:51:36.171Z,15.60
2022-10-10T19:54:04.250Z,15.70
2022-10-10T19:56:32.318Z,15.70
2022-10-10T19:59:04.234Z,15.70
2022-10-10T20:01:34.056Z,15.70
2022-10-10T20:04:02.077Z,15.80
2022-10-10T20:06:30.009Z,15.80
2022-10-10T20:08:57.963Z,15.80
2022-10-10T20:11:26.745Z,15.80
2022-10-10T20:13:55.755Z,15.80
2022-10-10T20:16:25.969Z,15.80
2022-10-10T20:18:57.432Z,15.80
2022-10-10T20:21:31.181Z,15.80
2022-10-10T20:23:59.683Z,15.80
2022-10-10T20:26:28.080Z,15.80
2022-10-10T20:28:57.284Z,15.80
2022-10-10T20:31:26.762Z,15.80
2022-10-10T20:34:00.585Z,15.80
2022-10-10T20:36:29.765Z,15.80
2022-10-10T20:39:00.508Z,15.80
2022-10-10T20:41:31.507Z,15.80
2022-10-10T20:44:00.946Z,15.80
2022-10-10T20:46:32.627Z,15.80
2022-10-10T20:49:03.431Z,15.80
2022-10-10T20:51:31.918Z,15.80
2022-10-10T20:54:01.994Z,15.80
2022-10-10T20:56:31.132Z,15.80
2022-10-10T20:58:59.661Z,15.80
2022-10-10T21:01:29.461Z,15.80
2022-10-10T21:03:58.662Z,15.80
2022-10-10T21:06:30.093Z,15.80
2022-10-10T21:09:00.950Z,15.80
2022-10-10T21:11:29.087Z,15.80
2022-10-10T21:13:59.620Z,15.80
2022-10-10T21:16:29.645Z,15.70
2022-10-10T21:18:58.727Z,15.70
2022-10-10T21:21:29.673Z,15.70
2022-10-10T21:23:57.994Z,15.70
2022-10-10T21:26:27.797Z,15.70
2022-10-10T21:28:57.238Z,15.70
2022-10-10T21:31:27.063Z,15.70
2022-10-10T21:33:55.428Z,15.70
2022-10-10T21:36:25.370Z,15.70
2022-10-10T21:38:55.827Z,15.70
2022-10-10T21:41:24.589Z,15.70
2022-10-10T21:43:54.869Z,15.70
2022-10-10T21:46:24.879Z,15.70
2022-10-10T21:48:55.369Z,15.70
2022-10-10T21:51:23.709Z,15.70
2022-10-10T21:53:51.937Z,15.70
2022-10-10T21:56:21.240Z,15.70
2022-10-10T21:58:49.186Z,15.70
2022-10-10T22:01:19.072Z,15.70
2022-10-10T22:03:49.438Z,15.70
2022-10-10T22:06:19.479Z,15.70
2022-10-10T22:08:48.636Z,15.60
2022-10-10T22:11:18.783Z,15.70
2022-10-10T22:13:48.552Z,15.60
2022-10-10T22:16:16.858Z,15.70
2022-10-10T22:18:44.847Z,15.60
2022-10-10T22:21:16.169Z,15.60
2022-10-10T22:23:44.785Z,15.60
2022-10-10T22:26:15.750Z,15.60
2022-10-10T22:28:44.349Z,15.60
2022-10-10T22:31:15.843Z,15.60
2022-10-10T22:33:44.406Z,15.60
2022-10-10T22:36:13.487Z,15.60
2022-10-10T22:38:43.300Z,15.60
2022-10-10T22:41:12.229Z,15.60
2022-10-10T22:43:40.331Z,15.60
2022-10-10T22:46:09.128Z,15.50
2022-10-10T22:48:39.110Z,15.50
2022-10-10T22:51:09.101Z,15.50
2022-10-10T22:53:37.123Z,15.50
2022-10-10T22:56:05.572Z,15.50
2022-10-10T22:58:33.771Z,15.50
2022-10-10T23:01:04.888Z,15.50
2022-10-10T23:03:33.017Z,15.50
2022-10-10T23:06:02.630Z,15.50
2022-10-10T23:08:31.012Z,15.50
2022-10-10T23:10:59.296Z,15.50
2022-10-10T23:13:27.309Z,15.50
2022-10-10T23:15:55.242Z,15.50
2022-10-10T23:18:23.412Z,15.50
2022-10-10T23:20:51.572Z,15.50
2022-10-10T23:23:20.920Z,15.50
2022-10-10T23:25:49.309Z,15.50
2022-10-10T23:28:18.389Z,15.50
2022-10-10T23:30:48.167Z,15.50
2022-10-10T23:33:17.151Z,15.40
2022-10-10T23:35:45.293Z,15.50
2022-10-10T23:38:13.192Z,15.50
2022-10-10T23:40:42.445Z,15.50
2022-10-10T23:43:10.605Z,15.50
2022-10-10T23:45:41.049Z,15.50
2022-10-10T23:48:09.014Z,15.50
2022-10-10T23:50:36.910Z,15.50
2022-10-10T23:53:05.006Z,15.50
2022-10-10T23:55:32.921Z,15.50
2022-10-10T23:58:03.226Z,15.50
